sensor_id;sensor_type;location;lat;lon;timestamp;P1;durP1;ratioP1;P2;durP2;ratioP2
80625;SDS011;69982;51.758;5.784;2023-05-07T00:00:25;4.80;;;2.00;;
80625;SDS011;69982;51.758;5.784;2023-05-07T00:03:13;4.80;;;2.30;;
80625;SDS011;69982;51.758;5.784;2023-05-07T00:05:41;4.90;;;2.40;;
80625;SDS011;69982;51.758;5.784;2023-05-07T00:08:09;6.20;;;2.50;;
80625;SDS011;69982;51.758;5.784;2023-05-07T00:10:37;5.10;;;2.40;;
80625;SDS011;69982;51.758;5.784;2023-05-07T00:13:05;5.90;;;2.90;;
80625;SDS011;69982;51.758;5.784;2023-05-07T00:15:33;4.30;;;2.20;;
80625;SDS011;69982;51.758;5.784;2023-05-07T00:18:00;3.60;;;2.10;;
80625;SDS011;69982;51.758;5.784;2023-05-07T00:20:28;4.40;;;2.20;;
80625;SDS011;69982;51.758;5.784;2023-05-07T00:22:56;5.90;;;2.30;;
80625;SDS011;69982;51.758;5.784;2023-05-07T00:25:24;3.90;;;2.30;;
80625;SDS011;69982;51.758;5.784;2023-05-07T00:27:52;4.90;;;2.40;;
80625;SDS011;69982;51.758;5.784;2023-05-07T00:30:19;5.20;;;2.60;;
80625;SDS011;69982;51.758;5.784;2023-05-07T00:35:17;5.40;;;2.80;;
80625;SDS011;69982;51.758;5.784;2023-05-07T00:37:44;5.10;;;2.70;;
80625;SDS011;69982;51.758;5.784;2023-05-07T00:40:12;5.90;;;3.30;;
80625;SDS011;69982;51.758;5.784;2023-05-07T00:42:40;5.40;;;3.40;;
80625;SDS011;69982;51.758;5.784;2023-05-07T00:45:08;6.90;;;3.40;;
80625;SDS011;69982;51.758;5.784;2023-05-07T00:47:38;5.40;;;3.00;;
80625;SDS011;69982;51.758;5.784;2023-05-07T00:50:07;5.40;;;3.00;;
80625;SDS011;69982;51.758;5.784;2023-05-07T00:52:37;6.10;;;3.60;;
80625;SDS011;69982;51.758;5.784;2023-05-07T00:55:05;9.00;;;4.00;;
80625;SDS011;69982;51.758;5.784;2023-05-07T00:57:37;7.20;;;4.00;;
80625;SDS011;69982;51.758;5.784;2023-05-07T01:00:08;8.00;;;4.10;;
80625;SDS011;69982;51.758;5.784;2023-05-07T01:02:40;8.20;;;4.40;;
80625;SDS011;69982;51.758;5.784;2023-05-07T01:05:09;7.50;;;4.50;;
80625;SDS011;69982;51.758;5.784;2023-05-07T01:07:42;9.70;;;4.90;;
80625;SDS011;69982;51.758;5.784;2023-05-07T01:10:09;7.50;;;4.50;;
80625;SDS011;69982;51.758;5.784;2023-05-07T01:12:38;7.30;;;4.10;;
80625;SDS011;69982;51.758;5.784;2023-05-07T01:15:07;5.20;;;3.20;;
80625;SDS011;69982;51.758;5.784;2023-05-07T01:17:38;5.50;;;3.20;;
80625;SDS011;69982;51.758;5.784;2023-05-07T01:20:08;5.40;;;3.20;;
80625;SDS011;69982;51.758;5.784;2023-05-07T01:22:38;7.30;;;4.50;;
80625;SDS011;69982;51.758;5.784;2023-05-07T01:25:07;7.50;;;4.20;;
80625;SDS011;69982;51.758;5.784;2023-05-07T01:27:35;6.20;;;3.90;;
80625;SDS011;69982;51.758;5.784;2023-05-07T01:30:05;7.30;;;4.00;;
80625;SDS011;69982;51.758;5.784;2023-05-07T01:32:35;7.50;;;4.50;;
80625;SDS011;69982;51.758;5.784;2023-05-07T01:35:07;6.00;;;3.60;;
80625;SDS011;69982;51.758;5.784;2023-05-07T01:37:39;10.30;;;5.00;;
80625;SDS011;69982;51.758;5.784;2023-05-07T01:40:08;9.40;;;5.10;;
80625;SDS011;69982;51.758;5.784;2023-05-07T01:42:36;7.40;;;4.70;;
80625;SDS011;69982;51.758;5.784;2023-05-07T01:45:05;9.00;;;5.40;;
80625;SDS011;69982;51.758;5.784;2023-05-07T01:47:33;7.80;;;5.30;;
80625;SDS011;69982;51.758;5.784;2023-05-07T01:50:00;9.30;;;6.00;;
80625;SDS011;69982;51.758;5.784;2023-05-07T01:52:28;10.70;;;6.80;;
80625;SDS011;69982;51.758;5.784;2023-05-07T01:54:56;13.60;;;7.80;;
80625;SDS011;69982;51.758;5.784;2023-05-07T01:57:24;11.80;;;7.40;;
80625;SDS011;69982;51.758;5.784;2023-05-07T01:59:52;12.30;;;6.40;;
80625;SDS011;69982;51.758;5.784;2023-05-07T02:02:20;9.00;;;5.90;;
80625;SDS011;69982;51.758;5.784;2023-05-07T02:04:47;12.20;;;6.60;;
80625;SDS011;69982;51.758;5.784;2023-05-07T02:07:16;12.20;;;7.80;;
80625;SDS011;69982;51.758;5.784;2023-05-07T02:09:43;13.60;;;7.20;;
80625;SDS011;69982;51.758;5.784;2023-05-07T02:12:11;11.50;;;7.60;;
80625;SDS011;69982;51.758;5.784;2023-05-07T02:14:38;11.90;;;7.50;;
80625;SDS011;69982;51.758;5.784;2023-05-07T02:17:07;13.40;;;8.50;;
80625;SDS011;69982;51.758;5.784;2023-05-07T02:22:02;15.40;;;10.40;;
80625;SDS011;69982;51.758;5.784;2023-05-07T02:24:30;14.80;;;10.90;;
80625;SDS011;69982;51.758;5.784;2023-05-07T02:26:58;15.50;;;10.30;;
80625;SDS011;69982;51.758;5.784;2023-05-07T02:29:25;15.70;;;10.30;;
80625;SDS011;69982;51.758;5.784;2023-05-07T02:31:53;16.20;;;9.90;;
80625;SDS011;69982;51.758;5.784;2023-05-07T02:34:21;14.70;;;10.30;;
80625;SDS011;69982;51.758;5.784;2023-05-07T02:36:48;15.40;;;9.90;;
80625;SDS011;69982;51.758;5.784;2023-05-07T02:39:17;14.60;;;10.30;;
80625;SDS011;69982;51.758;5.784;2023-05-07T02:41:44;16.00;;;11.70;;
80625;SDS011;69982;51.758;5.784;2023-05-07T02:44:12;15.30;;;10.80;;
80625;SDS011;69982;51.758;5.784;2023-05-07T02:46:40;15.70;;;10.50;;
80625;SDS011;69982;51.758;5.784;2023-05-07T02:49:07;16.40;;;10.90;;
80625;SDS011;69982;51.758;5.784;2023-05-07T02:51:35;15.40;;;10.70;;
80625;SDS011;69982;51.758;5.784;2023-05-07T02:54:02;13.70;;;10.30;;
80625;SDS011;69982;51.758;5.784;2023-05-07T02:56:30;14.40;;;10.60;;
80625;SDS011;69982;51.758;5.784;2023-05-07T02:58:58;13.70;;;10.00;;
80625;SDS011;69982;51.758;5.784;2023-05-07T03:01:25;15.00;;;9.30;;
80625;SDS011;69982;51.758;5.784;2023-05-07T03:03:53;14.60;;;10.10;;
80625;SDS011;69982;51.758;5.784;2023-05-07T03:08:49;15.60;;;10.00;;
80625;SDS011;69982;51.758;5.784;2023-05-07T03:11:18;18.30;;;11.20;;
80625;SDS011;69982;51.758;5.784;2023-05-07T03:13:45;15.30;;;10.60;;
80625;SDS011;69982;51.758;5.784;2023-05-07T03:16:14;16.10;;;11.30;;
80625;SDS011;69982;51.758;5.784;2023-05-07T03:18:41;13.00;;;9.70;;
80625;SDS011;69982;51.758;5.784;2023-05-07T03:21:09;17.10;;;10.40;;
80625;SDS011;69982;51.758;5.784;2023-05-07T03:23:37;14.20;;;9.70;;
80625;SDS011;69982;51.758;5.784;2023-05-07T03:26:04;15.60;;;10.00;;
80625;SDS011;69982;51.758;5.784;2023-05-07T03:28:32;13.00;;;9.10;;
80625;SDS011;69982;51.758;5.784;2023-05-07T03:31:00;14.50;;;9.60;;
80625;SDS011;69982;51.758;5.784;2023-05-07T03:33:28;14.90;;;10.10;;
80625;SDS011;69982;51.758;5.784;2023-05-07T03:35:56;13.00;;;9.20;;
80625;SDS011;69982;51.758;5.784;2023-05-07T03:38:24;14.00;;;9.90;;
80625;SDS011;69982;51.758;5.784;2023-05-07T03:40:52;13.10;;;8.50;;
80625;SDS011;69982;51.758;5.784;2023-05-07T03:43:19;15.70;;;9.70;;
80625;SDS011;69982;51.758;5.784;2023-05-07T03:45:47;13.40;;;8.50;;
80625;SDS011;69982;51.758;5.784;2023-05-07T03:48:16;12.80;;;9.30;;
80625;SDS011;69982;51.758;5.784;2023-05-07T03:50:44;11.30;;;8.50;;
80625;SDS011;69982;51.758;5.784;2023-05-07T03:53:11;11.20;;;8.10;;
80625;SDS011;69982;51.758;5.784;2023-05-07T03:55:39;14.00;;;9.10;;
80625;SDS011;69982;51.758;5.784;2023-05-07T03:58:07;12.10;;;8.70;;
80625;SDS011;69982;51.758;5.784;2023-05-07T04:03:05;13.60;;;9.80;;
80625;SDS011;69982;51.758;5.784;2023-05-07T04:05:34;14.30;;;10.20;;
80625;SDS011;69982;51.758;5.784;2023-05-07T04:08:03;16.70;;;10.50;;
80625;SDS011;69982;51.758;5.784;2023-05-07T04:10:31;15.40;;;9.40;;
80625;SDS011;69982;51.758;5.784;2023-05-07T04:12:58;14.10;;;10.00;;
80625;SDS011;69982;51.758;5.784;2023-05-07T04:15:26;14.70;;;9.70;;
80625;SDS011;69982;51.758;5.784;2023-05-07T04:17:54;15.30;;;10.20;;
80625;SDS011;69982;51.758;5.784;2023-05-07T04:20:22;14.50;;;10.00;;
80625;SDS011;69982;51.758;5.784;2023-05-07T04:22:50;16.70;;;10.90;;
80625;SDS011;69982;51.758;5.784;2023-05-07T04:25:18;15.50;;;11.60;;
80625;SDS011;69982;51.758;5.784;2023-05-07T04:27:46;18.00;;;11.20;;
80625;SDS011;69982;51.758;5.784;2023-05-07T04:30:14;16.80;;;11.90;;
80625;SDS011;69982;51.758;5.784;2023-05-07T04:32:42;18.60;;;12.50;;
80625;SDS011;69982;51.758;5.784;2023-05-07T04:35:11;18.00;;;12.30;;
80625;SDS011;69982;51.758;5.784;2023-05-07T04:37:39;17.30;;;11.60;;
80625;SDS011;69982;51.758;5.784;2023-05-07T04:40:07;16.60;;;10.70;;
80625;SDS011;69982;51.758;5.784;2023-05-07T04:42:35;20.10;;;11.80;;
80625;SDS011;69982;51.758;5.784;2023-05-07T04:45:03;15.70;;;11.60;;
80625;SDS011;69982;51.758;5.784;2023-05-07T04:47:32;16.90;;;12.20;;
80625;SDS011;69982;51.758;5.784;2023-05-07T04:50:00;17.80;;;11.20;;
80625;SDS011;69982;51.758;5.784;2023-05-07T04:52:28;15.70;;;11.50;;
80625;SDS011;69982;51.758;5.784;2023-05-07T04:54:56;19.70;;;11.90;;
80625;SDS011;69982;51.758;5.784;2023-05-07T04:57:24;19.50;;;13.40;;
80625;SDS011;69982;51.758;5.784;2023-05-07T04:59:53;16.20;;;11.70;;
80625;SDS011;69982;51.758;5.784;2023-05-07T05:02:21;18.20;;;12.60;;
80625;SDS011;69982;51.758;5.784;2023-05-07T05:04:50;16.50;;;12.30;;
80625;SDS011;69982;51.758;5.784;2023-05-07T05:07:19;18.70;;;11.60;;
80625;SDS011;69982;51.758;5.784;2023-05-07T05:09:47;19.20;;;11.70;;
80625;SDS011;69982;51.758;5.784;2023-05-07T05:12:15;17.20;;;12.00;;
80625;SDS011;69982;51.758;5.784;2023-05-07T05:14:43;19.10;;;12.40;;
80625;SDS011;69982;51.758;5.784;2023-05-07T05:17:10;16.30;;;12.30;;
80625;SDS011;69982;51.758;5.784;2023-05-07T05:19:38;19.00;;;12.40;;
80625;SDS011;69982;51.758;5.784;2023-05-07T05:22:06;17.30;;;12.60;;
80625;SDS011;69982;51.758;5.784;2023-05-07T05:24:34;16.20;;;11.00;;
80625;SDS011;69982;51.758;5.784;2023-05-07T05:27:01;16.40;;;11.30;;
80625;SDS011;69982;51.758;5.784;2023-05-07T05:29:30;17.50;;;11.80;;
80625;SDS011;69982;51.758;5.784;2023-05-07T05:32:00;15.40;;;11.80;;
80625;SDS011;69982;51.758;5.784;2023-05-07T05:34:28;15.80;;;11.40;;
80625;SDS011;69982;51.758;5.784;2023-05-07T05:36:57;16.90;;;11.50;;
80625;SDS011;69982;51.758;5.784;2023-05-07T05:39:26;14.90;;;11.10;;
80625;SDS011;69982;51.758;5.784;2023-05-07T05:41:54;17.10;;;11.90;;
80625;SDS011;69982;51.758;5.784;2023-05-07T05:44:22;16.10;;;11.20;;
80625;SDS011;69982;51.758;5.784;2023-05-07T05:46:50;16.50;;;12.10;;
80625;SDS011;69982;51.758;5.784;2023-05-07T05:49:18;18.40;;;11.80;;
80625;SDS011;69982;51.758;5.784;2023-05-07T05:51:46;15.50;;;11.00;;
80625;SDS011;69982;51.758;5.784;2023-05-07T05:54:14;13.10;;;8.90;;
80625;SDS011;69982;51.758;5.784;2023-05-07T05:56:42;13.50;;;10.10;;
80625;SDS011;69982;51.758;5.784;2023-05-07T05:59:10;15.30;;;9.90;;
80625;SDS011;69982;51.758;5.784;2023-05-07T06:01:38;17.80;;;10.80;;
80625;SDS011;69982;51.758;5.784;2023-05-07T06:04:06;15.60;;;10.60;;
80625;SDS011;69982;51.758;5.784;2023-05-07T06:06:33;15.70;;;10.30;;
80625;SDS011;69982;51.758;5.784;2023-05-07T06:09:01;17.50;;;11.50;;
80625;SDS011;69982;51.758;5.784;2023-05-07T06:11:29;17.00;;;11.00;;
80625;SDS011;69982;51.758;5.784;2023-05-07T06:13:59;18.40;;;11.50;;
80625;SDS011;69982;51.758;5.784;2023-05-07T06:16:27;16.00;;;10.30;;
80625;SDS011;69982;51.758;5.784;2023-05-07T06:18:55;15.30;;;10.20;;
80625;SDS011;69982;51.758;5.784;2023-05-07T06:21:23;14.90;;;10.60;;
80625;SDS011;69982;51.758;5.784;2023-05-07T06:23:50;15.40;;;9.90;;
80625;SDS011;69982;51.758;5.784;2023-05-07T06:26:19;13.90;;;10.10;;
80625;SDS011;69982;51.758;5.784;2023-05-07T06:28:47;15.10;;;10.80;;
80625;SDS011;69982;51.758;5.784;2023-05-07T06:31:18;14.30;;;9.90;;
80625;SDS011;69982;51.758;5.784;2023-05-07T06:33:50;14.20;;;10.70;;
80625;SDS011;69982;51.758;5.784;2023-05-07T06:36:21;13.90;;;10.20;;
80625;SDS011;69982;51.758;5.784;2023-05-07T06:38:49;15.90;;;10.40;;
80625;SDS011;69982;51.758;5.784;2023-05-07T06:41:19;15.00;;;10.90;;
80625;SDS011;69982;51.758;5.784;2023-05-07T06:43:48;16.80;;;11.00;;
80625;SDS011;69982;51.758;5.784;2023-05-07T06:46:18;13.90;;;9.80;;
80625;SDS011;69982;51.758;5.784;2023-05-07T06:48:47;12.80;;;9.40;;
80625;SDS011;69982;51.758;5.784;2023-05-07T06:51:16;15.70;;;9.60;;
80625;SDS011;69982;51.758;5.784;2023-05-07T06:56:13;13.80;;;9.10;;
80625;SDS011;69982;51.758;5.784;2023-05-07T06:58:41;13.20;;;9.40;;
80625;SDS011;69982;51.758;5.784;2023-05-07T07:01:09;15.80;;;9.60;;
80625;SDS011;69982;51.758;5.784;2023-05-07T07:03:37;13.30;;;9.40;;
80625;SDS011;69982;51.758;5.784;2023-05-07T07:08:33;13.40;;;9.00;;
80625;SDS011;69982;51.758;5.784;2023-05-07T07:11:02;13.80;;;9.00;;
80625;SDS011;69982;51.758;5.784;2023-05-07T07:13:30;12.80;;;9.00;;
80625;SDS011;69982;51.758;5.784;2023-05-07T07:15:58;15.00;;;8.40;;
80625;SDS011;69982;51.758;5.784;2023-05-07T07:18:25;14.10;;;8.00;;
80625;SDS011;69982;51.758;5.784;2023-05-07T07:20:53;11.80;;;8.20;;
80625;SDS011;69982;51.758;5.784;2023-05-07T07:23:21;12.00;;;8.40;;
80625;SDS011;69982;51.758;5.784;2023-05-07T07:25:49;12.50;;;8.10;;
80625;SDS011;69982;51.758;5.784;2023-05-07T07:28:17;12.10;;;8.10;;
80625;SDS011;69982;51.758;5.784;2023-05-07T07:30:48;12.30;;;8.30;;
80625;SDS011;69982;51.758;5.784;2023-05-07T07:33:17;12.20;;;9.10;;
80625;SDS011;69982;51.758;5.784;2023-05-07T07:35:45;15.20;;;9.20;;
80625;SDS011;69982;51.758;5.784;2023-05-07T07:38:12;11.90;;;8.80;;
80625;SDS011;69982;51.758;5.784;2023-05-07T07:40:40;13.30;;;8.60;;
80625;SDS011;69982;51.758;5.784;2023-05-07T07:43:08;10.40;;;7.50;;
80625;SDS011;69982;51.758;5.784;2023-05-07T07:45:36;11.60;;;8.00;;
80625;SDS011;69982;51.758;5.784;2023-05-07T07:48:04;11.40;;;7.90;;
80625;SDS011;69982;51.758;5.784;2023-05-07T07:50:31;11.10;;;7.90;;
80625;SDS011;69982;51.758;5.784;2023-05-07T07:53:06;11.90;;;7.50;;
80625;SDS011;69982;51.758;5.784;2023-05-07T07:55:37;12.80;;;8.20;;
80625;SDS011;69982;51.758;5.784;2023-05-07T07:58:05;11.90;;;8.10;;
80625;SDS011;69982;51.758;5.784;2023-05-07T08:00:33;13.90;;;8.10;;
80625;SDS011;69982;51.758;5.784;2023-05-07T08:03:01;12.50;;;7.80;;
80625;SDS011;69982;51.758;5.784;2023-05-07T08:05:31;11.00;;;7.70;;
80625;SDS011;69982;51.758;5.784;2023-05-07T08:10:27;10.40;;;7.30;;
80625;SDS011;69982;51.758;5.784;2023-05-07T08:12:55;11.50;;;7.90;;
80625;SDS011;69982;51.758;5.784;2023-05-07T08:15:22;13.10;;;7.40;;
80625;SDS011;69982;51.758;5.784;2023-05-07T08:17:50;12.70;;;8.00;;
80625;SDS011;69982;51.758;5.784;2023-05-07T08:20:20;11.40;;;7.70;;
80625;SDS011;69982;51.758;5.784;2023-05-07T08:22:52;10.40;;;7.80;;
80625;SDS011;69982;51.758;5.784;2023-05-07T08:25:24;11.80;;;7.10;;
80625;SDS011;69982;51.758;5.784;2023-05-07T08:27:53;9.50;;;7.40;;
80625;SDS011;69982;51.758;5.784;2023-05-07T08:30:28;12.00;;;6.90;;
80625;SDS011;69982;51.758;5.784;2023-05-07T08:32:58;11.20;;;7.50;;
80625;SDS011;69982;51.758;5.784;2023-05-07T08:35:26;11.50;;;7.10;;
80625;SDS011;69982;51.758;5.784;2023-05-07T08:37:56;10.20;;;7.20;;
80625;SDS011;69982;51.758;5.784;2023-05-07T08:40:26;9.50;;;7.00;;
80625;SDS011;69982;51.758;5.784;2023-05-07T08:42:58;10.40;;;7.10;;
80625;SDS011;69982;51.758;5.784;2023-05-07T08:45:29;9.10;;;6.30;;
80625;SDS011;69982;51.758;5.784;2023-05-07T08:48:05;8.50;;;5.90;;
80625;SDS011;69982;51.758;5.784;2023-05-07T08:50:43;9.30;;;6.00;;
80625;SDS011;69982;51.758;5.784;2023-05-07T08:53:13;9.20;;;6.20;;
80625;SDS011;69982;51.758;5.784;2023-05-07T08:55:44;8.20;;;5.90;;
80625;SDS011;69982;51.758;5.784;2023-05-07T08:58:16;11.20;;;6.60;;
80625;SDS011;69982;51.758;5.784;2023-05-07T09:00:44;9.10;;;6.50;;
80625;SDS011;69982;51.758;5.784;2023-05-07T09:03:14;10.40;;;6.70;;
80625;SDS011;69982;51.758;5.784;2023-05-07T09:08:14;8.90;;;6.20;;
80625;SDS011;69982;51.758;5.784;2023-05-07T09:10:43;10.50;;;6.00;;
80625;SDS011;69982;51.758;5.784;2023-05-07T09:13:12;8.50;;;5.50;;
80625;SDS011;69982;51.758;5.784;2023-05-07T09:15:42;7.80;;;5.20;;
80625;SDS011;69982;51.758;5.784;2023-05-07T09:18:10;9.60;;;5.50;;
80625;SDS011;69982;51.758;5.784;2023-05-07T09:20:43;8.90;;;5.10;;
80625;SDS011;69982;51.758;5.784;2023-05-07T09:23:11;8.30;;;5.30;;
80625;SDS011;69982;51.758;5.784;2023-05-07T09:25:40;8.70;;;5.80;;
80625;SDS011;69982;51.758;5.784;2023-05-07T09:28:08;7.70;;;5.90;;
80625;SDS011;69982;51.758;5.784;2023-05-07T09:30:38;10.20;;;6.50;;
80625;SDS011;69982;51.758;5.784;2023-05-07T09:33:06;10.70;;;5.70;;
80625;SDS011;69982;51.758;5.784;2023-05-07T09:35:34;10.50;;;5.60;;
80625;SDS011;69982;51.758;5.784;2023-05-07T09:38:05;6.80;;;4.80;;
80625;SDS011;69982;51.758;5.784;2023-05-07T09:40:33;9.30;;;5.20;;
80625;SDS011;69982;51.758;5.784;2023-05-07T09:43:08;7.80;;;5.30;;
80625;SDS011;69982;51.758;5.784;2023-05-07T09:45:40;8.40;;;5.40;;
80625;SDS011;69982;51.758;5.784;2023-05-07T09:48:08;13.70;;;4.80;;
80625;SDS011;69982;51.758;5.784;2023-05-07T09:50:45;8.20;;;5.00;;
80625;SDS011;69982;51.758;5.784;2023-05-07T09:55:46;7.80;;;4.90;;
80625;SDS011;69982;51.758;5.784;2023-05-07T09:58:15;7.20;;;5.10;;
80625;SDS011;69982;51.758;5.784;2023-05-07T10:00:45;7.40;;;4.70;;
80625;SDS011;69982;51.758;5.784;2023-05-07T10:03:14;7.50;;;4.50;;
80625;SDS011;69982;51.758;5.784;2023-05-07T10:05:42;7.50;;;4.90;;
80625;SDS011;69982;51.758;5.784;2023-05-07T10:08:11;7.70;;;5.10;;
80625;SDS011;69982;51.758;5.784;2023-05-07T10:10:40;7.10;;;4.80;;
80625;SDS011;69982;51.758;5.784;2023-05-07T10:13:07;9.50;;;5.40;;
80625;SDS011;69982;51.758;5.784;2023-05-07T10:15:38;7.50;;;4.80;;
80625;SDS011;69982;51.758;5.784;2023-05-07T10:18:06;7.60;;;5.20;;
80625;SDS011;69982;51.758;5.784;2023-05-07T10:20:35;9.90;;;5.30;;
80625;SDS011;69982;51.758;5.784;2023-05-07T10:23:04;8.00;;;5.60;;
80625;SDS011;69982;51.758;5.784;2023-05-07T10:25:33;9.20;;;5.70;;
80625;SDS011;69982;51.758;5.784;2023-05-07T10:28:04;9.30;;;5.20;;
80625;SDS011;69982;51.758;5.784;2023-05-07T10:30:40;7.50;;;5.20;;
80625;SDS011;69982;51.758;5.784;2023-05-07T10:33:16;8.60;;;4.90;;
80625;SDS011;69982;51.758;5.784;2023-05-07T10:35:47;8.60;;;5.10;;
80625;SDS011;69982;51.758;5.784;2023-05-07T10:38:16;8.30;;;4.70;;
80625;SDS011;69982;51.758;5.784;2023-05-07T10:40:44;8.90;;;5.00;;
80625;SDS011;69982;51.758;5.784;2023-05-07T10:43:14;6.90;;;4.50;;
80625;SDS011;69982;51.758;5.784;2023-05-07T10:48:10;7.50;;;5.00;;
80625;SDS011;69982;51.758;5.784;2023-05-07T10:50:47;7.80;;;4.70;;
80625;SDS011;69982;51.758;5.784;2023-05-07T10:55:47;9.00;;;4.70;;
80625;SDS011;69982;51.758;5.784;2023-05-07T11:01:01;10.20;;;4.80;;
80625;SDS011;69982;51.758;5.784;2023-05-07T11:03:30;8.70;;;4.90;;
80625;SDS011;69982;51.758;5.784;2023-05-07T11:06:16;9.40;;;4.90;;
80625;SDS011;69982;51.758;5.784;2023-05-07T11:14:14;9.30;;;4.90;;
80625;SDS011;69982;51.758;5.784;2023-05-07T11:17:13;8.30;;;5.00;;
80625;SDS011;69982;51.758;5.784;2023-05-07T11:22:35;9.20;;;4.60;;
80625;SDS011;69982;51.758;5.784;2023-05-07T11:25:07;7.50;;;4.70;;
80625;SDS011;69982;51.758;5.784;2023-05-07T11:27:36;8.90;;;5.00;;
80625;SDS011;69982;51.758;5.784;2023-05-07T11:30:04;8.20;;;5.30;;
80625;SDS011;69982;51.758;5.784;2023-05-07T11:32:32;7.90;;;5.10;;
80625;SDS011;69982;51.758;5.784;2023-05-07T11:35:01;9.60;;;4.80;;
80625;SDS011;69982;51.758;5.784;2023-05-07T11:40:07;9.50;;;5.10;;
80625;SDS011;69982;51.758;5.784;2023-05-07T11:42:39;8.50;;;5.50;;
80625;SDS011;69982;51.758;5.784;2023-05-07T11:45:08;7.30;;;4.40;;
80625;SDS011;69982;51.758;5.784;2023-05-07T11:47:37;9.90;;;5.10;;
80625;SDS011;69982;51.758;5.784;2023-05-07T11:50:06;10.40;;;5.70;;
80625;SDS011;69982;51.758;5.784;2023-05-07T11:52:36;9.00;;;5.10;;
80625;SDS011;69982;51.758;5.784;2023-05-07T11:55:07;7.00;;;5.00;;
80625;SDS011;69982;51.758;5.784;2023-05-07T11:57:35;8.70;;;5.00;;
80625;SDS011;69982;51.758;5.784;2023-05-07T12:00:03;8.10;;;4.90;;
80625;SDS011;69982;51.758;5.784;2023-05-07T12:02:33;6.70;;;4.30;;
80625;SDS011;69982;51.758;5.784;2023-05-07T12:05:03;8.80;;;4.80;;
80625;SDS011;69982;51.758;5.784;2023-05-07T12:07:33;10.90;;;5.00;;
80625;SDS011;69982;51.758;5.784;2023-05-07T12:10:05;10.90;;;5.00;;
80625;SDS011;69982;51.758;5.784;2023-05-07T12:12:40;6.80;;;4.10;;
80625;SDS011;69982;51.758;5.784;2023-05-07T12:15:13;6.40;;;3.20;;
80625;SDS011;69982;51.758;5.784;2023-05-07T14:09:03;7.20;;;3.30;;
80625;SDS011;69982;51.758;5.784;2023-05-07T14:11:32;5.90;;;2.70;;
80625;SDS011;69982;51.758;5.784;2023-05-07T14:14:02;4.50;;;0.60;;
80625;SDS011;69982;51.758;5.784;2023-05-07T14:16:30;2.60;;;0.40;;
80625;SDS011;69982;51.758;5.784;2023-05-07T14:18:59;5.50;;;0.50;;
80625;SDS011;69982;51.758;5.784;2023-05-07T14:21:27;3.60;;;0.40;;
80625;SDS011;69982;51.758;5.784;2023-05-07T14:23:56;1.30;;;0.30;;
80625;SDS011;69982;51.758;5.784;2023-05-07T14:26:24;2.60;;;0.30;;
80625;SDS011;69982;51.758;5.784;2023-05-07T14:28:54;2.40;;;0.80;;
80625;SDS011;69982;51.758;5.784;2023-05-07T14:31:26;4.40;;;0.90;;
80625;SDS011;69982;51.758;5.784;2023-05-07T14:33:55;2.40;;;0.90;;
80625;SDS011;69982;51.758;5.784;2023-05-07T14:36:25;5.70;;;1.40;;
80625;SDS011;69982;51.758;5.784;2023-05-07T14:38:54;2.90;;;1.10;;
80625;SDS011;69982;51.758;5.784;2023-05-07T14:43:50;2.30;;;1.00;;
80625;SDS011;69982;51.758;5.784;2023-05-07T14:46:19;2.40;;;0.90;;
80625;SDS011;69982;51.758;5.784;2023-05-07T14:48:47;3.70;;;0.90;;
80625;SDS011;69982;51.758;5.784;2023-05-07T14:51:16;2.40;;;0.90;;
80625;SDS011;69982;51.758;5.784;2023-05-07T14:53:44;2.90;;;0.80;;
80625;SDS011;69982;51.758;5.784;2023-05-07T14:56:13;3.40;;;0.90;;
80625;SDS011;69982;51.758;5.784;2023-05-07T14:58:42;2.40;;;0.80;;
80625;SDS011;69982;51.758;5.784;2023-05-07T15:01:11;2.70;;;0.90;;
80625;SDS011;69982;51.758;5.784;2023-05-07T15:03:39;5.10;;;1.00;;
80625;SDS011;69982;51.758;5.784;2023-05-07T15:06:08;3.20;;;1.10;;
80625;SDS011;69982;51.758;5.784;2023-05-07T15:08:36;3.20;;;1.20;;
80625;SDS011;69982;51.758;5.784;2023-05-07T15:11:04;2.60;;;0.80;;
80625;SDS011;69982;51.758;5.784;2023-05-07T15:13:33;5.60;;;1.20;;
80625;SDS011;69982;51.758;5.784;2023-05-07T15:16:02;3.70;;;1.30;;
80625;SDS011;69982;51.758;5.784;2023-05-07T15:18:30;3.00;;;1.40;;
80625;SDS011;69982;51.758;5.784;2023-05-07T15:21:00;3.60;;;1.60;;
80625;SDS011;69982;51.758;5.784;2023-05-07T15:23:29;7.30;;;1.90;;
80625;SDS011;69982;51.758;5.784;2023-05-07T15:25:58;4.40;;;1.80;;
80625;SDS011;69982;51.758;5.784;2023-05-07T15:28:28;4.40;;;2.00;;
80625;SDS011;69982;51.758;5.784;2023-05-07T15:30:58;4.70;;;2.30;;
80625;SDS011;69982;51.758;5.784;2023-05-07T15:33:27;4.40;;;2.00;;
80625;SDS011;69982;51.758;5.784;2023-05-07T15:35:56;6.00;;;2.10;;
80625;SDS011;69982;51.758;5.784;2023-05-07T15:38:27;4.70;;;2.20;;
80625;SDS011;69982;51.758;5.784;2023-05-07T15:41:00;6.90;;;2.50;;
80625;SDS011;69982;51.758;5.784;2023-05-07T15:43:30;5.40;;;2.20;;
80625;SDS011;69982;51.758;5.784;2023-05-07T15:45:59;5.40;;;2.30;;
80625;SDS011;69982;51.758;5.784;2023-05-07T15:48:28;5.30;;;2.50;;
80625;SDS011;69982;51.758;5.784;2023-05-07T15:51:02;4.70;;;2.50;;
80625;SDS011;69982;51.758;5.784;2023-05-07T15:53:32;9.40;;;2.40;;
80625;SDS011;69982;51.758;5.784;2023-05-07T15:56:02;6.00;;;2.60;;
80625;SDS011;69982;51.758;5.784;2023-05-07T15:58:32;8.30;;;3.10;;
80625;SDS011;69982;51.758;5.784;2023-05-07T16:01:03;6.60;;;2.70;;
80625;SDS011;69982;51.758;5.784;2023-05-07T16:03:33;11.10;;;2.60;;
80625;SDS011;69982;51.758;5.784;2023-05-07T16:06:02;4.50;;;2.40;;
80625;SDS011;69982;51.758;5.784;2023-05-07T16:08:32;8.30;;;3.10;;
80625;SDS011;69982;51.758;5.784;2023-05-07T16:11:01;5.20;;;2.10;;
80625;SDS011;69982;51.758;5.784;2023-05-07T16:13:29;5.00;;;2.20;;
80625;SDS011;69982;51.758;5.784;2023-05-07T16:15:59;6.10;;;2.50;;
80625;SDS011;69982;51.758;5.784;2023-05-07T16:18:29;5.70;;;2.30;;
80625;SDS011;69982;51.758;5.784;2023-05-07T16:20:58;3.60;;;2.30;;
80625;SDS011;69982;51.758;5.784;2023-05-07T16:23:28;5.10;;;2.30;;
80625;SDS011;69982;51.758;5.784;2023-05-07T16:25:59;4.50;;;2.60;;
80625;SDS011;69982;51.758;5.784;2023-05-07T16:28:28;4.00;;;1.90;;
80625;SDS011;69982;51.758;5.784;2023-05-07T16:30:57;4.40;;;2.30;;
80625;SDS011;69982;51.758;5.784;2023-05-07T16:33:29;3.90;;;2.10;;
80625;SDS011;69982;51.758;5.784;2023-05-07T16:35:59;7.10;;;1.90;;
80625;SDS011;69982;51.758;5.784;2023-05-07T16:38:31;5.10;;;2.00;;
80625;SDS011;69982;51.758;5.784;2023-05-07T16:41:03;5.20;;;1.90;;
80625;SDS011;69982;51.758;5.784;2023-05-07T16:43:35;4.90;;;2.10;;
80625;SDS011;69982;51.758;5.784;2023-05-07T16:46:05;3.50;;;1.60;;
80625;SDS011;69982;51.758;5.784;2023-05-07T16:48:34;4.00;;;1.90;;
80625;SDS011;69982;51.758;5.784;2023-05-07T16:51:04;5.00;;;1.70;;
80625;SDS011;69982;51.758;5.784;2023-05-07T16:53:34;3.40;;;1.90;;
80625;SDS011;69982;51.758;5.784;2023-05-07T16:56:07;4.00;;;1.70;;
80625;SDS011;69982;51.758;5.784;2023-05-07T16:58:40;3.80;;;2.00;;
80625;SDS011;69982;51.758;5.784;2023-05-07T17:01:08;4.70;;;1.90;;
80625;SDS011;69982;51.758;5.784;2023-05-07T17:03:42;4.20;;;1.80;;
80625;SDS011;69982;51.758;5.784;2023-05-07T17:06:12;4.00;;;1.90;;
80625;SDS011;69982;51.758;5.784;2023-05-07T17:08:43;3.70;;;1.40;;
80625;SDS011;69982;51.758;5.784;2023-05-07T17:11:11;3.70;;;1.40;;
80625;SDS011;69982;51.758;5.784;2023-05-07T17:13:40;3.90;;;1.30;;
80625;SDS011;69982;51.758;5.784;2023-05-07T17:16:09;4.70;;;1.60;;
80625;SDS011;69982;51.758;5.784;2023-05-07T17:18:38;4.40;;;1.50;;
80625;SDS011;69982;51.758;5.784;2023-05-07T17:21:06;4.80;;;1.70;;
80625;SDS011;69982;51.758;5.784;2023-05-07T17:23:35;3.60;;;1.30;;